Time;durP1;ratioP1;P1;durP2;ratioP2;P2;SDS_P1;SDS_P2;PMS_P1;PMS_P2;Temp;Humidity;BMP_temperature;BMP_pressure;BME280_temperature;BME280_humidity;BME280_pressure;Samples;Min_cycle;Max_cycle;Signal;HPM_P1;HPM_P2
2021/04/19 00:02:16;;;;;;;21.13;11.45;;;8.70;69.50;;;;;;5050856;28;20049;-72
2021/04/19 00:04:41;;;;;;;21.48;11.82;;;8.70;69.40;;;;;;5049391;28;20036;-71
2021/04/19 00:07:09;;;;;;;20.90;11.98;;;8.70;69.30;;;;;;5046547;28;20385;-71
2021/04/19 00:09:38;;;;;;;21.90;11.40;;;8.70;69.30;;;;;;5039091;28;20028;-71
2021/04/19 00:12:07;;;;;;;20.92;11.23;;;8.70;69.40;;;;;;5048406;28;20017;-70
2021/04/19 00:14:33;;;;;;;20.25;11.68;;;8.60;69.50;;;;;;5059054;28;20021;-71
2021/04/19 00:17:03;;;;;;;20.85;11.30;;;8.60;69.60;;;;;;5057413;28;20036;-71
2021/04/19 00:19:29;;;;;;;20.90;12.05;;;8.60;69.80;;;;;;5065551;28;20037;-71
2021/04/19 00:21:57;;;;;;;18.65;11.82;;;8.60;69.70;;;;;;5048422;28;20182;-70
2021/04/19 00:24:23;;;;;;;22.85;11.18;;;8.60;69.80;;;;;;5047766;28;20040;-70
2021/04/19 00:26:49;;;;;;;20.23;11.40;;;8.50;70.30;;;;;;5045646;28;20413;-71
2021/04/19 00:29:14;;;;;;;18.23;10.95;;;8.50;69.80;;;;;;5049988;28;20028;-71
2021/04/19 00:31:40;;;;;;;22.10;11.95;;;8.40;69.80;;;;;;5048815;28;20115;-71
2021/04/19 00:34:06;;;;;;;21.33;11.13;;;8.40;69.80;;;;;;5043180;28;20127;-71
2021/04/19 00:36:31;;;;;;;20.70;12.52;;;8.30;70.00;;;;;;5050791;28;20029;-70
2021/04/19 00:38:57;;;;;;;21.60;12.68;;;8.40;70.20;;;;;;5050611;28;20032;-71
2021/04/19 00:41:23;;;;;;;20.77;12.07;;;8.30;70.20;;;;;;5047717;28;20047;-70
2021/04/19 00:43:49;;;;;;;19.83;12.43;;;8.30;70.30;;;;;;5035545;28;20119;-71
2021/04/19 00:46:16;;;;;;;18.60;11.57;;;8.30;70.30;;;;;;5045664;28;20059;-71
2021/04/19 00:48:42;;;;;;;24.05;12.73;;;8.30;70.30;;;;;;5058906;28;20052;-71
2021/04/19 00:51:08;;;;;;;21.33;12.63;;;8.30;70.30;;;;;;5048625;28;20056;-71
2021/04/19 00:53:35;;;;;;;24.05;12.88;;;8.30;70.30;;;;;;5050093;28;20178;-71
2021/04/19 00:56:02;;;;;;;22.77;12.38;;;8.30;70.40;;;;;;5047756;28;20476;-71
2021/04/19 00:58:32;;;;;;;24.63;13.27;;;8.20;70.40;;;;;;5049654;28;20025;-71
2021/04/19 01:00:58;;;;;;;23.42;12.50;;;8.20;70.50;;;;;;5049064;28;20116;-71
2021/04/19 01:03:25;;;;;;;26.38;13.15;;;8.20;70.50;;;;;;5048334;28;20033;-71
2021/04/19 01:05:51;;;;;;;22.40;12.05;;;8.10;70.60;;;;;;5049188;28;20108;-71
2021/04/19 01:08:17;;;;;;;19.73;12.55;;;8.10;70.70;;;;;;5043241;28;20029;-71
2021/04/19 01:10:43;;;;;;;21.65;12.50;;;8.10;70.70;;;;;;5046740;28;20052;-72
2021/04/19 01:13:09;;;;;;;22.35;13.15;;;8.10;70.80;;;;;;5053719;28;20025;-70
2021/04/19 01:15:35;;;;;;;20.30;12.13;;;8.10;70.80;;;;;;5056875;28;20028;-70
2021/04/19 01:18:01;;;;;;;22.90;12.82;;;8.10;70.80;;;;;;5063374;23;20063;-70
2021/04/19 01:20:31;;;;;;;20.20;12.70;;;8.10;70.90;;;;;;5060672;28;20021;-68
2021/04/19 01:22:57;;;;;;;20.83;12.15;;;8.10;70.90;;;;;;5044644;28;20056;-68
2021/04/19 01:25:25;;;;;;;20.50;12.05;;;8.10;70.90;;;;;;5049061;28;20443;-67
2021/04/19 01:27:52;;;;;;;18.40;11.95;;;8.10;71.00;;;;;;5057360;28;20025;-67
2021/04/19 01:30:21;;;;;;;23.98;13.05;;;8.10;70.80;;;;;;5045981;28;20030;-66
2021/04/19 01:32:47;;;;;;;22.13;12.70;;;8.10;70.90;;;;;;5061687;28;20017;-67
2021/04/19 01:35:14;;;;;;;24.25;13.40;;;8.10;71.00;;;;;;5046632;28;20446;-68
2021/04/19 01:37:40;;;;;;;23.73;12.20;;;8.10;71.00;;;;;;5049439;28;20377;-67
2021/04/19 01:40:08;;;;;;;21.30;12.85;;;8.10;71.00;;;;;;5048916;28;20036;-67
2021/04/19 01:42:33;;;;;;;22.27;12.68;;;8.00;71.10;;;;;;5058317;28;20164;-67
2021/04/19 01:44:59;;;;;;;21.30;12.40;;;8.00;71.10;;;;;;5051610;28;20030;-67
2021/04/19 01:47:25;;;;;;;23.15;13.25;;;8.00;71.00;;;;;;5029740;28;20449;-67
2021/04/19 01:49:51;;;;;;;27.02;13.07;;;8.00;71.10;;;;;;5056346;28;20458;-67
2021/04/19 01:52:17;;;;;;;24.33;12.27;;;8.00;71.10;;;;;;5063628;28;20028;-67
2021/04/19 01:54:43;;;;;;;19.48;12.30;;;8.00;71.20;;;;;;5050417;28;20447;-68
2021/04/19 01:57:08;;;;;;;22.85;12.50;;;8.00;71.20;;;;;;5029625;28;20030;-67
2021/04/19 01:59:35;;;;;;;28.60;14.13;;;8.00;71.30;;;;;;5048267;28;20032;-67
2021/04/19 02:02:27;;;;;;;24.25;13.35;;;8.00;71.40;;;;;;5041693;28;20067;-67
2021/04/19 02:05:10;;;;;;;22.70;12.35;;;8.00;71.40;;;;;;5047808;28;20040;-71
2021/04/19 02:07:42;;;;;;;;;;;8.00;71.30;;;;;;5061129;28;20116;-67
2021/04/19 02:10:49;;;;;;;21.27;12.90;;;8.10;70.90;;;;;;5062606;28;20357;-68
2021/04/19 02:13:21;;;;;;;23.83;13.43;;;8.10;71.10;;;;;;5042091;28;20074;-67
2021/04/19 02:16:01;;;;;;;21.98;13.35;;;8.10;71.10;;;;;;5057474;28;20041;-67
2021/04/19 02:18:42;;;;;;;19.80;12.15;;;8.10;71.60;;;;;;5050171;28;20029;-69
2021/04/19 02:21:11;;;;;;;22.52;12.70;;;8.10;71.30;;;;;;5050712;28;20029;-69
2021/04/19 02:23:44;;;;;;;22.73;13.18;;;8.10;71.40;;;;;;5050569;28;20071;-70
2021/04/19 02:26:19;;;;;;;25.50;13.63;;;8.10;71.30;;;;;;5045508;28;20491;-72
2021/04/19 02:29:11;;;;;;;21.20;13.25;;;8.10;71.30;;;;;;5035270;28;20017;-66
2021/04/19 02:31:42;;;;;;;22.20;12.97;;;8.10;71.40;;;;;;5062791;28;20405;-67
2021/04/19 02:34:12;;;;;;;22.40;13.35;;;8.10;71.20;;;;;;5063914;28;20271;-69
2021/04/19 02:36:45;;;;;;;22.67;13.95;;;8.10;71.30;;;;;;5048697;28;20087;-68
2021/04/19 02:39:12;;;;;;;25.70;13.80;;;8.10;71.40;;;;;;5048398;28;20031;-67
2021/04/19 02:41:40;;;;;;;22.88;13.07;;;8.10;71.40;;;;;;5057437;28;20451;-67
2021/04/19 02:44:10;;;;;;;27.05;13.75;;;8.00;71.40;;;;;;5048096;28;20044;-67
2021/04/19 02:46:37;;;;;;;25.30;13.50;;;8.00;71.60;;;;;;5045839;28;20032;-67
2021/04/19 02:49:04;;;;;;;22.17;13.23;;;8.00;71.50;;;;;;5053190;28;20023;-68
2021/04/19 02:51:31;;;;;;;25.00;13.75;;;8.00;71.70;;;;;;5048346;28;20027;-70
2021/04/19 02:53:58;;;;;;;23.95;13.55;;;8.00;71.70;;;;;;5055777;28;20022;-66
2021/04/19 02:56:24;;;;;;;26.00;13.98;;;8.00;71.60;;;;;;5052537;28;20133;-67
2021/04/19 02:58:56;;;;;;;25.23;13.48;;;8.00;71.60;;;;;;5048891;28;20034;-67
2021/04/19 03:01:27;;;;;;;;;;;8.00;71.90;;;;;;5033039;28;20136;-67
2021/04/19 03:04:01;;;;;;;22.92;13.30;;;8.00;71.40;;;;;;5052226;28;20315;-67
2021/04/19 03:06:29;;;;;;;26.70;13.57;;;8.00;71.60;;;;;;5044766;28;20428;-67
2021/04/19 03:09:00;;;;;;;26.20;14.32;;;7.90;71.50;;;;;;5048515;28;20021;-67
2021/04/19 03:11:32;;;;;;;23.38;13.45;;;7.90;71.60;;;;;;5044328;28;20060;-66
2021/04/19 03:14:00;;;;;;;26.55;14.90;;;7.80;71.80;;;;;;5047490;28;20104;-67
2021/04/19 03:16:28;;;;;;;25.77;14.75;;;7.80;71.80;;;;;;5064657;28;20090;-67
2021/04/19 03:18:55;;;;;;;26.90;14.75;;;7.80;71.90;;;;;;5054424;28;20031;-68
2021/04/19 03:21:26;;;;;;;26.95;15.82;;;7.80;72.00;;;;;;5035247;28;20628;-67
2021/04/19 03:23:54;;;;;;;27.65;15.90;;;7.70;72.10;;;;;;5039175;28;20033;-73
2021/04/19 03:26:24;;;;;;;28.83;16.20;;;7.70;72.20;;;;;;5051892;28;20203;-67
2021/04/19 03:28:51;;;;;;;26.38;14.50;;;7.70;72.30;;;;;;5051816;28;20024;-68
2021/04/19 03:31:38;;;;;;;25.05;14.85;;;7.60;72.30;;;;;;5051597;28;20029;-68
2021/04/19 03:34:13;;;;;;;28.90;15.02;;;7.60;72.50;;;;;;5065550;28;20029;-66
2021/04/19 03:36:40;;;;;;;25.90;14.60;;;7.60;72.50;;;;;;5051672;28;20035;-66
2021/04/19 03:39:07;;;;;;;27.80;14.98;;;7.60;72.40;;;;;;5048311;28;20453;-68
2021/04/19 03:41:44;;;;;;;26.27;15.68;;;7.60;72.50;;;;;;5044900;28;20025;-67
2021/04/19 03:44:13;;;;;;;26.52;15.07;;;7.60;72.60;;;;;;5048180;28;20030;-67
2021/04/19 03:46:41;;;;;;;25.95;13.95;;;7.60;72.70;;;;;;5044751;28;20032;-67
2021/04/19 03:49:13;;;;;;;30.08;15.52;;;7.60;72.80;;;;;;5054254;28;20028;-67
2021/04/19 03:51:43;;;;;;;23.92;14.63;;;7.60;72.80;;;;;;5061640;28;20498;-67
2021/04/19 03:54:10;;;;;;;27.83;14.95;;;7.60;72.80;;;;;;5060416;28;20044;-71
2021/04/19 03:56:39;;;;;;;27.92;15.38;;;7.60;72.80;;;;;;5048219;28;20021;-70
2021/04/19 03:59:08;;;;;;;27.27;15.68;;;7.50;72.80;;;;;;5032976;28;20021;-68
2021/04/19 04:01:37;;;;;;;26.15;15.25;;;7.60;72.90;;;;;;5051254;28;20025;-70
2021/04/19 04:04:04;;;;;;;27.17;15.20;;;7.50;73.00;;;;;;5049175;28;20021;-67
2021/04/19 04:06:30;;;;;;;28.15;15.23;;;7.50;72.90;;;;;;5038747;28;20021;-67
2021/04/19 04:08:57;;;;;;;28.60;16.02;;;7.50;73.00;;;;;;5047055;28;20083;-68
2021/04/19 04:11:24;;;;;;;28.83;16.00;;;7.50;73.10;;;;;;5040820;28;20417;-68
2021/04/19 04:13:50;;;;;;;25.45;16.05;;;7.50;73.20;;;;;;5052910;28;20103;-69
2021/04/19 04:16:15;;;;;;;31.00;15.43;;;7.50;73.30;;;;;;5051010;28;20139;-68
2021/04/19 04:18:41;;;;;;;31.80;15.75;;;7.50;73.20;;;;;;5050509;28;20021;-71
2021/04/19 04:21:07;;;;;;;28.02;15.45;;;7.50;73.20;;;;;;5056906;28;20029;-68
2021/04/19 04:23:34;;;;;;;29.92;15.90;;;7.40;73.30;;;;;;5050763;28;20025;-68
2021/04/19 04:26:00;;;;;;;25.92;15.70;;;7.40;73.30;;;;;;5049485;28;20036;-69
2021/04/19 04:28:26;;;;;;;29.27;16.30;;;7.40;73.90;;;;;;5044484;28;20079;-69
2021/04/19 04:30:52;;;;;;;26.60;15.98;;;7.50;73.50;;;;;;5040394;28;20017;-69
2021/04/19 04:33:17;;;;;;;30.67;16.55;;;7.50;73.50;;;;;;5050124;28;20021;-70
2021/04/19 04:35:43;;;;;;;26.58;16.05;;;7.50;73.50;;;;;;5050588;28;20059;-69
2021/04/19 04:38:09;;;;;;;29.52;16.40;;;7.50;73.60;;;;;;5051132;28;20056;-70
2021/04/19 04:40:34;;;;;;;29.52;17.17;;;7.50;73.60;;;;;;5050600;28;20031;-69
2021/04/19 04:43:02;;;;;;;31.52;16.40;;;7.50;73.70;;;;;;5050704;28;20025;-69
2021/04/19 04:45:28;;;;;;;29.10;16.55;;;7.50;73.70;;;;;;5051808;28;20386;-72
2021/04/19 04:48:15;;;;;;;33.40;17.60;;;7.60;73.70;;;;;;5050466;28;20139;-70
2021/04/19 04:50:45;;;;;;;32.28;18.50;;;7.60;73.80;;;;;;5059541;28;20048;-69
2021/04/19 04:53:18;;;;;;;28.45;17.60;;;7.60;73.70;;;;;;5070576;28;20039;-68
2021/04/19 04:55:48;;;;;;;34.03;18.67;;;7.60;73.90;;;;;;5087287;28;20021;-68
2021/04/19 04:58:17;;;;;;;36.75;18.42;;;7.60;73.90;;;;;;5070524;28;20047;-70
2021/04/19 05:00:44;;;;;;;34.47;18.90;;;7.60;74.00;;;;;;5073467;28;20039;-71
2021/04/19 05:03:11;;;;;;;31.92;18.25;;;7.60;73.90;;;;;;5050424;28;20408;-70
2021/04/19 05:05:40;;;;;;;33.80;18.42;;;7.70;74.00;;;;;;5050006;28;20404;-69
2021/04/19 05:08:09;;;;;;;29.75;18.30;;;7.70;74.00;;;;;;5049915;28;20025;-68
2021/04/19 05:10:35;;;;;;;35.80;19.45;;;7.70;73.90;;;;;;5042123;28;20017;-69
2021/04/19 05:13:00;;;;;;;32.42;18.90;;;7.80;74.10;;;;;;5050394;28;20017;-70
2021/04/19 05:15:26;;;;;;;30.08;18.38;;;7.80;74.00;;;;;;5071711;28;20031;-68
2021/04/19 05:17:52;;;;;;;31.00;18.75;;;7.80;74.00;;;;;;5065870;28;20116;-68
2021/04/19 05:20:18;;;;;;;33.22;18.63;;;7.80;73.90;;;;;;5048422;28;20115;-67
2021/04/19 05:22:44;;;;;;;32.97;18.45;;;7.80;73.90;;;;;;5034703;28;20504;-68
2021/04/19 05:25:11;;;;;;;32.42;17.10;;;7.80;74.10;;;;;;5060766;28;20025;-68
2021/04/19 05:27:37;;;;;;;31.02;17.75;;;7.80;74.10;;;;;;5030815;28;20591;-67
2021/04/19 05:30:04;;;;;;;35.50;18.60;;;7.80;74.10;;;;;;5050019;28;20071;-67
2021/04/19 05:32:29;;;;;;;30.40;17.33;;;7.70;74.00;;;;;;5043669;28;20017;-68
2021/04/19 05:34:56;;;;;;;37.53;18.42;;;7.70;74.20;;;;;;5047357;28;20070;-68
2021/04/19 05:37:23;;;;;;;31.50;17.77;;;7.70;74.20;;;;;;5047145;28;20029;-69
2021/04/19 05:39:50;;;;;;;34.83;18.15;;;7.70;74.30;;;;;;5041394;28;20522;-68
2021/04/19 05:42:16;;;;;;;30.98;17.73;;;7.70;74.40;;;;;;5047766;28;20035;-69
2021/04/19 05:44:43;;;;;;;37.03;19.65;;;7.70;74.50;;;;;;5034822;28;20111;-68
2021/04/19 05:47:10;;;;;;;31.15;17.88;;;7.70;74.50;;;;;;5049232;28;20021;-69
2021/04/19 05:49:36;;;;;;;33.33;17.55;;;7.70;74.40;;;;;;5058312;28;20118;-69
2021/04/19 05:52:05;;;;;;;34.10;18.05;;;7.60;74.40;;;;;;5059111;28;20025;-69
2021/04/19 05:54:33;;;;;;;32.05;18.05;;;7.60;74.60;;;;;;5049540;28;20028;-69
2021/04/19 05:57:01;;;;;;;34.05;18.58;;;7.60;74.60;;;;;;5049584;28;20032;-69
2021/04/19 05:59:43;;;;;;;33.33;18.35;;;7.60;74.70;;;;;;5066527;28;20484;-68
2021/04/19 06:02:14;;;;;;;29.73;17.45;;;7.60;75.00;;;;;;5050189;28;20091;-68
2021/04/19 06:04:56;;;;;;;32.30;18.42;;;7.60;74.90;;;;;;5049773;28;20124;-68
2021/04/19 06:07:51;;;;;;;35.55;17.95;;;7.60;74.90;;;;;;5050062;28;20032;-70
2021/04/19 06:10:29;;;;;;;29.10;18.13;;;7.60;74.90;;;;;;5049103;28;20025;-68
2021/04/19 06:12:58;;;;;;;39.92;22.35;;;7.60;74.90;;;;;;5030212;28;20033;-69
2021/04/19 06:15:25;;;;;;;31.30;19.80;;;7.60;75.00;;;;;;5041447;28;20135;-68
2021/04/19 06:17:53;;;;;;;37.63;19.73;;;7.60;74.90;;;;;;5049962;28;20474;-68
2021/04/19 06:20:21;;;;;;;30.83;18.40;;;7.60;74.90;;;;;;5061106;28;20063;-69
2021/04/19 06:22:51;;;;;;;31.45;19.70;;;7.70;75.00;;;;;;5031881;28;20033;-71
2021/04/19 06:25:18;;;;;;;35.28;19.77;;;7.70;75.20;;;;;;5038899;28;20025;-69
2021/04/19 06:27:44;;;;;;;34.78;20.73;;;7.70;75.00;;;;;;5032609;28;20438;-68
2021/04/19 06:30:16;;;;;;;32.25;19.98;;;7.70;75.10;;;;;;5034704;28;20120;-69
2021/04/19 06:32:43;;;;;;;36.03;20.60;;;7.70;75.40;;;;;;5053936;28;20021;-68
2021/04/19 06:35:10;;;;;;;34.85;19.85;;;7.70;75.30;;;;;;5053560;28;20029;-68
2021/04/19 06:37:36;;;;;;;35.33;20.50;;;7.80;75.50;;;;;;5053809;28;20476;-69
2021/04/19 06:40:04;;;;;;;36.35;21.15;;;7.80;75.40;;;;;;5053592;28;20188;-69
2021/04/19 06:42:30;;;;;;;40.47;21.95;;;7.90;75.70;;;;;;5053587;28;20116;-69
2021/04/19 06:44:59;;;;;;;37.58;21.15;;;7.90;75.50;;;;;;5054591;28;20454;-69
2021/04/19 06:47:25;;;;;;;35.70;20.77;;;7.90;75.50;;;;;;5053573;28;20021;-69
2021/04/19 06:49:53;;;;;;;38.53;20.92;;;8.00;75.50;;;;;;5047271;28;20112;-69
2021/04/19 06:52:19;;;;;;;35.70;21.55;;;8.00;75.60;;;;;;5044505;28;20021;-68
2021/04/19 06:54:45;;;;;;;38.65;21.48;;;8.10;75.60;;;;;;5049982;28;20026;-68
2021/04/19 06:57:14;;;;;;;38.70;22.05;;;8.10;75.50;;;;;;5049988;28;20388;-69
2021/04/19 06:59:44;;;;;;;41.42;22.95;;;8.20;75.60;;;;;;5033512;28;20061;-68
2021/04/19 07:02:19;;;;;;;37.75;22.55;;;8.20;75.40;;;;;;5033418;28;20029;-71
2021/04/19 07:04:49;;;;;;;39.92;22.17;;;8.30;75.50;;;;;;5033289;28;20036;-68
2021/04/19 07:07:18;;;;;;;39.30;21.52;;;8.30;75.40;;;;;;5047700;28;20025;-69
2021/04/19 07:09:45;;;;;;;38.55;22.95;;;8.30;75.40;;;;;;5053211;28;20032;-68
2021/04/19 07:12:17;;;;;;;35.50;21.92;;;8.40;75.50;;;;;;5039494;28;20025;-68
2021/04/19 07:14:48;;;;;;;38.05;22.33;;;8.50;75.50;;;;;;5051913;28;20470;-69
2021/04/19 07:17:14;;;;;;;39.13;23.52;;;8.50;75.40;;;;;;5074439;28;20388;-69
2021/04/19 07:19:39;;;;;;;37.03;21.40;;;8.50;75.40;;;;;;5048141;28;20029;-68
2021/04/19 07:22:06;;;;;;;36.92;21.77;;;8.60;75.40;;;;;;5066136;28;20370;-69
2021/04/19 07:24:34;;;;;;;38.03;21.05;;;8.60;75.40;;;;;;5052490;28;20067;-70
2021/04/19 07:27:02;;;;;;;34.78;22.10;;;8.70;75.30;;;;;;5041401;28;20380;-70
2021/04/19 07:29:27;;;;;;;38.85;21.63;;;8.80;75.10;;;;;;5052418;28;20017;-70
2021/04/19 07:31:55;;;;;;;37.15;22.25;;;8.80;75.20;;;;;;5053771;28;20083;-70
2021/04/19 07:34:27;;;;;;;34.80;21.02;;;8.90;75.20;;;;;;5052165;28;20025;-69
2021/04/19 07:36:57;;;;;;;37.42;21.17;;;8.90;75.30;;;;;;5052633;28;20029;-70
2021/04/19 07:39:24;;;;;;;34.75;22.00;;;8.90;75.20;;;;;;5051583;28;20035;-70
2021/04/19 07:41:59;;;;;;;33.10;21.13;;;9.00;75.30;;;;;;5052397;28;20029;-69
2021/04/19 07:44:47;;;;;;;34.50;20.25;;;9.00;75.40;;;;;;5051699;28;20339;-70
2021/04/19 07:47:50;;;;;;;33.38;21.00;;;9.00;75.30;;;;;;5052087;28;20082;-69
2021/04/19 07:50:21;;;;;;;38.45;20.48;;;9.10;75.20;;;;;;4999803;28;20029;-69
2021/04/19 07:52:53;;;;;;;34.00;19.88;;;9.10;75.20;;;;;;5071019;28;20090;-70
2021/04/19 07:55:25;;;;;;;32.75;19.33;;;9.10;75.30;;;;;;5052074;28;20021;-69
2021/04/19 07:57:51;;;;;;;32.75;20.10;;;9.20;75.30;;;;;;5051770;28;20043;-70
2021/04/19 08:00:34;;;;;;;35.83;20.52;;;9.20;75.10;;;;;;5052000;28;20128;-70
2021/04/19 08:03:05;;;;;;;35.47;19.73;;;9.20;75.10;;;;;;5051826;28;20056;-70
2021/04/19 08:05:36;;;;;;;37.50;20.48;;;9.30;75.30;;;;;;5052458;28;20036;-70
2021/04/19 08:08:02;;;;;;;35.53;20.73;;;9.30;75.30;;;;;;5051811;28;20432;-70
2021/04/19 08:10:30;;;;;;;41.40;22.52;;;9.40;75.10;;;;;;5044687;28;20075;-70
2021/04/19 08:13:27;;;;;;;39.60;23.60;;;9.40;75.00;;;;;;5044704;28;20488;-70
2021/04/19 08:15:53;;;;;;;35.40;21.15;;;9.40;74.90;;;;;;5034145;28;20064;-70
2021/04/19 08:18:19;;;;;;;39.28;22.60;;;9.40;75.10;;;;;;5054095;28;20037;-69
2021/04/19 08:20:54;;;;;;;39.03;22.05;;;9.50;75.20;;;;;;5051436;28;20036;-70
2021/04/19 08:23:21;;;;;;;36.17;21.63;;;9.60;75.30;;;;;;5067740;28;20025;-68
2021/04/19 08:25:53;;;;;;;35.75;22.05;;;9.60;74.80;;;;;;5066888;28;20032;-70
2021/04/19 08:28:24;;;;;;;35.10;21.48;;;9.60;75.00;;;;;;5046830;28;20059;-69
2021/04/19 08:30:54;;;;;;;34.65;21.23;;;9.70;75.00;;;;;;5042080;28;20025;-70
2021/04/19 08:33:21;;;;;;;36.88;21.55;;;9.70;74.90;;;;;;5042331;28;20052;-68
2021/04/19 08:35:48;;;;;;;40.45;23.38;;;9.80;74.80;;;;;;5049646;28;20670;-70
2021/04/19 08:38:18;;;;;;;38.03;22.42;;;9.90;74.60;;;;;;5051192;28;20033;-69
2021/04/19 08:40:44;;;;;;;36.03;21.85;;;9.90;74.60;;;;;;5050951;28;20063;-70
2021/04/19 08:43:20;;;;;;;40.67;23.33;;;9.90;74.50;;;;;;5050629;28;20089;-70
2021/04/19 08:45:48;;;;;;;42.15;24.05;;;9.90;74.60;;;;;;5050619;28;20032;-69
2021/04/19 08:48:15;;;;;;;37.30;22.20;;;9.90;74.40;;;;;;5051724;28;20029;-70
2021/04/19 08:50:44;;;;;;;36.83;22.33;;;9.90;74.20;;;;;;5050810;28;20029;-70
2021/04/19 08:53:12;;;;;;;42.40;23.13;;;9.90;74.30;;;;;;5050421;28;20028;-69
2021/04/19 08:55:39;;;;;;;35.78;21.02;;;9.90;74.30;;;;;;5050235;28;20052;-69
2021/04/19 08:58:13;;;;;;;36.35;21.30;;;9.90;74.40;;;;;;5054331;28;20020;-69
2021/04/19 09:00:42;;;;;;;41.40;23.13;;;9.90;74.60;;;;;;5045034;28;20026;-70
2021/04/19 09:03:09;;;;;;;38.92;22.35;;;9.90;74.50;;;;;;5050045;28;20124;-70
2021/04/19 09:05:35;;;;;;;43.10;24.08;;;9.90;74.40;;;;;;5049770;28;20033;-70
2021/04/19 09:08:21;;;;;;;44.17;23.05;;;9.80;74.40;;;;;;5066884;28;20051;-69
2021/04/19 09:11:05;;;;;;;39.58;24.00;;;9.90;74.50;;;;;;5050312;28;20428;-70
2021/04/19 09:13:32;;;;;;;37.58;21.67;;;9.90;74.80;;;;;;5050252;28;20017;-70
2021/04/19 09:16:20;;;;;;;36.35;21.50;;;10.00;74.80;;;;;;5038777;28;20021;-69
2021/04/19 09:18:56;;;;;;;37.83;21.75;;;10.10;74.60;;;;;;5057635;28;20043;-69
2021/04/19 09:21:42;;;;;;;34.60;20.33;;;10.20;74.30;;;;;;5067064;28;20277;-69
2021/04/19 09:24:08;;;;;;;32.45;20.60;;;10.30;74.20;;;;;;5050375;28;20535;-69
2021/04/19 09:26:54;;;;;;;32.25;19.00;;;10.30;74.10;;;;;;5058524;28;20079;-70
2021/04/19 09:29:26;;;;;;;33.08;20.10;;;10.40;74.20;;;;;;5039095;28;20025;-69
2021/04/19 09:31:57;;;;;;;25.90;15.15;;;10.50;73.90;;;;;;5050320;28;20392;-69
2021/04/19 09:34:45;;;;;;;33.00;19.20;;;10.50;73.70;;;;;;5050224;28;20029;-70
2021/04/19 09:37:13;;;;;;;34.42;19.25;;;10.60;73.40;;;;;;5037176;28;20025;-70
2021/04/19 09:40:06;;;;;;;31.85;18.80;;;10.60;73.30;;;;;;5063657;28;20036;-70
2021/04/19 09:42:54;;;;;;;31.55;19.50;;;10.60;73.10;;;;;;5038324;28;20025;-69
2021/04/19 09:45:42;;;;;;;30.33;19.83;;;10.70;73.10;;;;;;5061571;28;20095;-70
2021/04/19 09:48:27;;;;;;;31.48;19.95;;;10.70;73.20;;;;;;5054103;28;20124;-69
2021/04/19 09:51:04;;;;;;;37.47;21.02;;;10.70;73.40;;;;;;5067311;28;20033;-70
2021/04/19 09:53:30;;;;;;;33.65;21.10;;;10.70;73.40;;;;;;5050179;28;20477;-70
2021/04/19 09:55:57;;;;;;;41.25;22.70;;;10.80;73.00;;;;;;5049617;28;20032;-70
2021/04/19 09:58:23;;;;;;;40.28;23.63;;;10.90;72.90;;;;;;5050173;28;20032;-70
2021/04/19 10:01:00;;;;;;;37.03;22.05;;;11.00;72.80;;;;;;5049808;28;20025;-70
2021/04/19 10:03:26;;;;;;;42.00;23.40;;;11.00;72.60;;;;;;5029682;28;20040;-69
2021/04/19 10:05:54;;;;;;;36.90;21.80;;;11.00;72.50;;;;;;5047095;28;20028;-69
2021/04/19 10:08:22;;;;;;;35.58;21.92;;;11.00;72.50;;;;;;5049688;28;20547;-70
2021/04/19 10:10:52;;;;;;;40.78;23.20;;;11.10;72.70;;;;;;5049667;28;20458;-70
2021/04/19 10:13:38;;;;;;;43.95;25.33;;;11.20;73.30;;;;;;5049932;28;20028;-69
2021/04/19 10:16:06;;;;;;;40.10;24.83;;;11.20;72.50;;;;;;5049344;28;20052;-70
2021/04/19 10:18:38;;;;;;;39.90;23.30;;;11.20;72.00;;;;;;5056913;28;20107;-70
2021/04/19 10:21:06;;;;;;;38.85;23.65;;;11.10;72.00;;;;;;5061271;28;20458;-69
2021/04/19 10:23:33;;;;;;;41.17;24.50;;;11.00;72.40;;;;;;5046486;28;20037;-70
2021/04/19 10:25:59;;;;;;;38.65;23.80;;;11.00;72.50;;;;;;5057452;28;20021;-70
2021/04/19 10:28:36;;;;;;;37.03;22.50;;;11.00;72.60;;;;;;5066689;28;20564;-70
2021/04/19 10:31:09;;;;;;;39.35;23.10;;;11.00;72.40;;;;;;5049550;28;20017;-70
2021/04/19 10:33:35;;;;;;;37.20;22.95;;;11.00;72.00;;;;;;5048022;28;20021;-69
2021/04/19 10:36:14;;;;;;;38.50;22.27;;;11.00;71.80;;;;;;5049290;28;20032;-70
2021/04/19 10:38:40;;;;;;;38.55;23.15;;;10.90;71.90;;;;;;5049363;28;20036;-69
2021/04/19 10:41:07;;;;;;;39.53;21.85;;;10.90;72.00;;;;;;5039820;28;20459;-69
2021/04/19 10:43:32;;;;;;;38.05;23.17;;;10.90;71.80;;;;;;5062195;28;20043;-70
2021/04/19 10:45:59;;;;;;;36.40;21.73;;;10.80;72.00;;;;;;5048800;28;20552;-70
2021/04/19 10:48:27;;;;;;;36.05;21.15;;;10.80;71.90;;;;;;5041785;28;20124;-70
2021/04/19 10:51:13;;;;;;;39.08;21.45;;;10.80;72.10;;;;;;5040068;28;20021;-70
2021/04/19 10:53:40;;;;;;;33.85;19.83;;;10.90;71.90;;;;;;5032618;28;20120;-70
2021/04/19 10:56:07;;;;;;;35.00;19.55;;;10.90;72.00;;;;;;5048753;28;20029;-71
2021/04/19 10:58:35;;;;;;;33.25;19.52;;;11.10;72.10;;;;;;5049415;28;20021;-70
2021/04/19 11:01:01;;;;;;;31.45;18.17;;;11.20;71.90;;;;;;5050759;28;20029;-71
2021/04/19 11:03:37;;;;;;;31.40;18.95;;;11.30;71.00;;;;;;5049969;28;20475;-70
2021/04/19 11:06:10;;;;;;;30.85;18.00;;;11.30;70.80;;;;;;5039845;28;20052;-69
2021/04/19 11:08:58;;;;;;;30.83;18.38;;;11.40;70.70;;;;;;5062298;28;20449;-70
2021/04/19 11:11:39;;;;;;;28.83;16.95;;;11.40;70.10;;;;;;5049479;28;20109;-69
2021/04/19 11:14:16;;;;;;;32.03;18.92;;;11.50;70.50;;;;;;5065649;28;20334;-69
2021/04/19 11:16:51;;;;;;;27.75;17.25;;;11.60;70.40;;;;;;5052893;28;20048;-69
2021/04/19 11:19:31;;;;;;;26.40;16.13;;;11.60;69.80;;;;;;5066678;28;20035;-69
2021/04/19 11:21:57;;;;;;;25.80;16.65;;;11.60;70.00;;;;;;5052102;28;20025;-69
2021/04/19 11:24:37;;;;;;;27.52;17.35;;;11.60;70.00;;;;;;5068922;28;20033;-69
2021/04/19 11:27:04;;;;;;;28.40;16.45;;;11.60;70.00;;;;;;5052669;28;20024;-69
2021/04/19 11:29:48;;;;;;;28.33;16.25;;;11.50;69.40;;;;;;5052556;28;20043;-69
2021/04/19 11:32:34;;;;;;;28.73;16.58;;;11.50;69.90;;;;;;5052727;28;20032;-69
2021/04/19 11:35:01;;;;;;;28.75;17.92;;;11.50;70.10;;;;;;5052356;28;20025;-69
2021/04/19 11:37:29;;;;;;;27.33;16.00;;;11.50;69.70;;;;;;5052634;28;20104;-70
2021/04/19 11:39:57;;;;;;;30.27;17.70;;;11.60;69.60;;;;;;5053569;28;20036;-69
2021/04/19 11:42:33;;;;;;;27.60;16.27;;;11.60;69.80;;;;;;5052385;28;20021;-69
2021/04/19 11:44:59;;;;;;;24.67;15.98;;;11.70;69.60;;;;;;5051265;28;20044;-69
2021/04/19 11:47:25;;;;;;;24.55;14.88;;;11.80;69.50;;;;;;5052008;28;20025;-70
2021/04/19 11:49:52;;;;;;;23.73;14.55;;;11.90;69.20;;;;;;5061431;28;20486;-70
2021/04/19 11:52:19;;;;;;;23.85;14.90;;;12.00;68.90;;;;;;5088980;28;20028;-69
2021/04/19 11:54:44;;;;;;;21.40;13.57;;;12.00;68.70;;;;;;5060979;28;20071;-70
2021/04/19 11:57:10;;;;;;;21.55;12.75;;;12.20;68.50;;;;;;5052038;28;20554;-69
2021/04/19 11:59:36;;;;;;;20.08;12.82;;;12.20;68.30;;;;;;5052235;28;20029;-70
2021/04/19 12:02:04;;;;;;;20.30;12.52;;;12.30;68.40;;;;;;5051768;28;20505;-69
2021/04/19 12:04:30;;;;;;;23.35;13.02;;;12.50;68.60;;;;;;5051954;28;20035;-70
2021/04/19 12:06:57;;;;;;;20.75;12.25;;;12.60;67.60;;;;;;5045710;28;20112;-69
2021/04/19 12:09:23;;;;;;;20.30;12.27;;;12.70;67.70;;;;;;5041245;28;20025;-70
2021/04/19 12:11:48;;;;;;;17.02;11.30;;;12.70;67.20;;;;;;5051653;28;20018;-69
2021/04/19 12:14:14;;;;;;;17.17;11.07;;;12.70;66.90;;;;;;5063387;28;20120;-70
2021/04/19 12:16:40;;;;;;;16.70;10.50;;;12.70;65.60;;;;;;5051542;28;20029;-70
2021/04/19 12:19:05;;;;;;;15.32;9.90;;;12.60;65.30;;;;;;5047172;28;20025;-69
2021/04/19 12:21:31;;;;;;;15.60;9.20;;;12.50;65.70;;;;;;5067544;28;20029;-70
2021/04/19 12:23:57;;;;;;;14.95;9.80;;;12.50;65.00;;;;;;5051574;28;20021;-70
2021/04/19 12:26:22;;;;;;;12.48;8.20;;;12.60;64.20;;;;;;5051075;28;20482;-70
2021/04/19 12:28:48;;;;;;;12.43;8.13;;;12.50;63.90;;;;;;5050493;28;20031;-70
2021/04/19 12:31:14;;;;;;;14.55;9.15;;;12.40;64.10;;;;;;5051450;28;20050;-70
2021/04/19 12:33:40;;;;;;;13.00;8.93;;;12.50;64.60;;;;;;5050772;28;20420;-70
2021/04/19 12:36:06;;;;;;;16.40;10.65;;;12.70;65.00;;;;;;5051666;28;20481;-70
2021/04/19 12:38:33;;;;;;;15.45;10.10;;;13.00;64.20;;;;;;5054640;28;20385;-68
2021/04/19 12:40:59;;;;;;;16.33;10.10;;;13.30;64.00;;;;;;5068037;28;20029;-70
2021/04/19 12:43:25;;;;;;;15.60;9.20;;;13.60;63.50;;;;;;5067752;28;20032;-70
2021/04/19 12:45:50;;;;;;;11.60;7.97;;;13.70;63.20;;;;;;5051036;28;20025;-70
2021/04/19 12:48:16;;;;;;;12.10;7.90;;;13.90;62.80;;;;;;5045431;28;20132;-70
2021/04/19 12:50:42;;;;;;;14.57;7.97;;;14.00;61.80;;;;;;5057502;28;20019;-70